Time;durP1;ratioP1;P1;durP2;ratioP2;P2;SDS_P1;SDS_P2;PMS_P1;PMS_P2;Temp;Humidity;BMP_temperature;BMP_pressure;BME280_temperature;BME280_humidity;BME280_pressure;Samples;Min_cycle;Max_cycle;Signal;HPM_P1;HPM_P2
2022/05/22 00:01:54;;;;;;;;;;;;;;;26.66;35.03;100045.38;5077243;28;969;-45
2022/05/22 00:04:20;;;;;;;;;;;;;;;26.56;35.28;100034.13;5077258;28;895;-45
2022/05/22 00:06:45;;;;;;;;;;;;;;;26.76;34.67;100039.63;5077295;28;1894;-46
2022/05/22 00:09:10;;;;;;;;;;;;;;;26.64;35.21;100045.59;5077869;28;849;-45
2022/05/22 00:11:35;;;;;;;;;;;;;;;26.87;34.49;100025.63;5077068;28;861;-45
2022/05/22 00:14:01;;;;;;;;;;;;;;;26.70;34.73;100027.78;5076461;28;860;-47
2022/05/22 00:16:41;;;;;;;;;;;;;;;26.41;35.40;100025.09;5076725;28;872;-46
2022/05/22 00:19:08;;;;;;;;;;;;;;;26.77;34.86;100023.28;5076844;28;1531;-46
2022/05/22 00:21:33;;;;;;;;;;;;;;;26.66;34.64;100015.72;5057800;28;881;-45
2022/05/22 00:23:58;;;;;;;;;;;;;;;26.73;34.38;100015.75;5077258;28;752;-45
2022/05/22 00:26:24;;;;;;;;;;;;;;;26.80;34.54;100016.63;5076680;28;1956;-46
2022/05/22 00:28:50;;;;;;;;;;;;;;;26.60;34.96;100016.50;5076963;28;790;-46
2022/05/22 00:31:16;;;;;;;;;;;;;;;26.87;34.44;100009.41;5076298;28;841;-45
2022/05/22 00:33:41;;;;;;;;;;;;;;;26.80;34.55;100013.94;5076331;28;849;-45
2022/05/22 00:36:06;;;;;;;;;;;;;;;26.74;34.43;100006.66;5077212;28;852;-46
2022/05/22 00:38:32;;;;;;;;;;;;;;;26.87;34.38;100006.72;5077142;28;746;-45
2022/05/22 00:40:57;;;;;;;;;;;;;;;26.82;34.72;100011.88;5076459;28;918;-45
2022/05/22 00:43:33;;;;;;;;;;;;;;;27.00;34.28;100010.50;5076922;28;885;-45
2022/05/22 00:45:58;;;;;;;;;;;;;;;26.99;33.91;100004.25;5075771;28;1902;-45
2022/05/22 00:48:24;;;;;;;;;;;;;;;26.78;33.89;100008.75;5076815;28;770;-45
2022/05/22 00:50:49;;;;;;;;;;;;;;;26.99;34.12;100008.84;5076375;28;862;-45
2022/05/22 00:53:15;;;;;;;;;;;;;;;26.29;34.06;100005.06;5057771;28;866;-45
2022/05/22 00:55:40;;;;;;;;;;;;;;;25.63;36.95;100001.56;5058805;28;830;-50
2022/05/22 00:58:06;;;;;;;;;;;;;;;26.16;35.86;99992.28;5076207;28;810;-45
2022/05/22 01:00:33;;;;;;;;;;;;;;;26.43;35.03;99991.69;5058056;28;1007;-46
2022/05/22 01:05:43;;;;;;;;;;;;;;;26.56;34.49;99990.97;5076223;28;1958;-44
2022/05/22 01:08:08;;;;;;;;;;;;;;;26.41;34.85;99983.81;5058401;28;803;-44
2022/05/22 01:10:34;;;;;;;;;;;;;;;26.40;34.59;99983.00;5075959;28;869;-45
2022/05/22 01:13:00;;;;;;;;;;;;;;;26.67;34.12;99976.94;5057386;28;861;-45
2022/05/22 01:15:25;;;;;;;;;;;;;;;26.54;34.52;99980.38;5076096;28;824;-47
2022/05/22 01:17:51;;;;;;;;;;;;;;;26.81;33.75;99979.69;5076485;28;850;-46
2022/05/22 01:20:16;;;;;;;;;;;;;;;26.70;34.08;99978.38;5076151;28;768;-48
2022/05/22 01:22:41;;;;;;;;;;;;;;;26.47;34.56;99982.19;5076051;28;714;-48
2022/05/22 01:25:07;;;;;;;;;;;;;;;26.82;33.50;99975.97;5075925;28;884;-46
2022/05/22 01:27:32;;;;;;;;;;;;;;;26.65;33.54;99987.91;5075854;28;1905;-45
2022/05/22 01:30:09;;;;;;;;;;;;;;;26.69;33.86;99977.56;5058114;28;785;-45
2022/05/22 01:32:35;;;;;;;;;;;;;;;26.70;33.81;99981.06;5075921;28;873;-45
2022/05/22 01:35:00;;;;;;;;;;;;;;;26.53;34.09;99976.84;5076039;28;853;-46
2022/05/22 01:37:26;;;;;;;;;;;;;;;26.86;33.20;99977.25;5076194;28;801;-46
2022/05/22 01:39:52;;;;;;;;;;;;;;;26.79;33.31;99977.19;5075836;28;1284;-45
2022/05/22 01:42:17;;;;;;;;;;;;;;;26.78;33.15;99976.38;5075864;28;876;-45
2022/05/22 01:44:42;;;;;;;;;;;;;;;26.84;32.89;99972.00;5075668;28;998;-45
2022/05/22 01:47:08;;;;;;;;;;;;;;;26.76;33.12;99973.03;5075809;28;1918;-45
2022/05/22 01:49:33;;;;;;;;;;;;;;;26.92;32.68;99972.88;5075393;28;782;-45
2022/05/22 01:51:59;;;;;;;;;;;;;;;26.90;33.06;99970.38;5076033;28;893;-44
2022/05/22 01:54:24;;;;;;;;;;;;;;;26.80;32.16;99973.47;5075792;28;818;-45
2022/05/22 01:56:49;;;;;;;;;;;;;;;26.97;32.67;99963.16;5075407;28;762;-44
2022/05/22 01:59:15;;;;;;;;;;;;;;;26.83;32.76;99961.41;5075733;28;825;-46
2022/05/22 02:01:40;;;;;;;;;;;;;;;26.97;32.37;99960.47;5075319;28;915;-45
2022/05/22 02:04:05;;;;;;;;;;;;;;;26.91;32.50;99963.94;5075215;28;933;-47
2022/05/22 02:06:31;;;;;;;;;;;;;;;26.78;31.69;99962.88;5076020;28;1905;-45
2022/05/22 02:08:56;;;;;;;;;;;;;;;27.00;32.32;99953.81;5076020;28;849;-45
2022/05/22 02:11:21;;;;;;;;;;;;;;;26.87;32.50;99970.78;5075329;28;757;-45
2022/05/22 02:13:48;;;;;;;;;;;;;;;26.97;32.25;99956.94;5075435;28;857;-45
2022/05/22 02:16:13;;;;;;;;;;;;;;;26.95;32.25;99962.53;5075252;28;887;-46
2022/05/22 02:18:39;;;;;;;;;;;;;;;26.78;31.88;99968.25;5075721;28;801;-47
2022/05/22 02:21:04;;;;;;;;;;;;;;;26.98;32.31;99962.13;5075615;28;889;-47
2022/05/22 02:23:30;;;;;;;;;;;;;;;26.84;32.18;99958.53;5075443;28;753;-47
2022/05/22 02:25:56;;;;;;;;;;;;;;;26.89;32.01;99950.66;5075351;28;1948;-45
2022/05/22 02:28:21;;;;;;;;;;;;;;;26.95;32.05;99962.53;5075162;28;927;-45
2022/05/22 02:30:48;;;;;;;;;;;;;;;26.80;32.28;99964.53;5075123;28;938;-47
2022/05/22 02:33:13;;;;;;;;;;;;;;;26.99;32.24;99954.88;5075592;28;819;-45
2022/05/22 02:35:38;;;;;;;;;;;;;;;26.88;32.43;99959.81;5075681;28;745;-46
2022/05/22 02:38:04;;;;;;;;;;;;;;;26.89;31.93;99960.66;5079287;28;774;-46
2022/05/22 02:40:29;;;;;;;;;;;;;;;26.93;32.42;99952.94;5072248;28;798;-45
2022/05/22 02:42:55;;;;;;;;;;;;;;;26.78;32.46;99948.53;5079456;28;786;-49
2022/05/22 02:45:21;;;;;;;;;;;;;;;26.92;32.51;99948.59;5078535;28;962;-46
2022/05/22 02:47:47;;;;;;;;;;;;;;;26.90;32.34;99946.09;5078946;28;1967;-49
2022/05/22 02:50:12;;;;;;;;;;;;;;;26.85;32.20;99944.00;5079461;28;809;-46
2022/05/22 02:52:38;;;;;;;;;;;;;;;26.88;32.67;99950.88;5078812;28;835;-46
2022/05/22 02:55:04;;;;;;;;;;;;;;;26.94;32.69;99949.25;5078796;28;951;-44
2022/05/22 02:57:31;;;;;;;;;;;;;;;27.01;32.65;99950.06;5078915;28;835;-45
2022/05/22 02:59:56;;;;;;;;;;;;;;;26.88;32.42;99959.81;5078665;28;912;-44
2022/05/22 03:02:22;;;;;;;;;;;;;;;26.85;32.60;99960.19;5078792;28;842;-44
2022/05/22 03:04:48;;;;;;;;;;;;;;;26.93;32.32;99955.66;5078856;28;908;-44
2022/05/22 03:07:14;;;;;;;;;;;;;;;26.87;32.50;99960.84;5078756;28;1893;-46
2022/05/22 03:09:39;;;;;;;;;;;;;;;26.93;32.53;99951.09;5060323;28;1096;-45
2022/05/22 03:12:25;;;;;;;;;;;;;;;26.91;32.39;99945.06;5078366;28;904;-44
2022/05/22 03:14:51;;;;;;;;;;;;;;;26.92;32.66;99971.03;5072637;28;1531;-44
2022/05/22 03:17:16;;;;;;;;;;;;;;;26.98;32.61;99962.13;5078090;28;954;-44
2022/05/22 03:19:42;;;;;;;;;;;;;;;26.95;32.68;99959.84;5078025;28;932;-42
2022/05/22 03:22:07;;;;;;;;;;;;;;;26.76;32.64;99982.97;5078286;28;888;-41
2022/05/22 03:24:33;;;;;;;;;;;;;;;26.78;33.09;99989.00;5077753;28;830;-41
2022/05/22 03:27:00;;;;;;;;;;;;;;;26.71;32.94;99983.56;5071413;28;1906;-42
2022/05/22 03:29:27;;;;;;;;;;;;;;;26.55;33.38;99979.34;5071647;28;1055;-42
2022/05/22 03:31:52;;;;;;;;;;;;;;;26.44;33.41;99980.75;5076969;28;948;-42
2022/05/22 03:34:17;;;;;;;;;;;;;;;26.43;33.61;99984.44;5077948;28;866;-42
2022/05/22 03:36:43;;;;;;;;;;;;;;;26.46;33.69;99986.75;5077650;28;832;-43
2022/05/22 03:39:08;;;;;;;;;;;;;;;26.51;33.51;99983.44;5077539;28;801;-42
2022/05/22 03:41:37;;;;;;;;;;;;;;;26.60;33.16;99987.69;5077644;28;814;-43
2022/05/22 03:44:02;;;;;;;;;;;;;;;26.46;33.30;99989.44;5076367;28;1074;-42
2022/05/22 03:46:27;;;;;;;;;;;;;;;26.34;33.44;99983.75;5077189;28;1910;-45
2022/05/22 03:48:53;;;;;;;;;;;;;;;26.53;33.36;99970.59;5077358;28;865;-40
2022/05/22 03:51:18;;;;;;;;;;;;;;;26.72;33.09;99968.22;5058864;28;857;-40
2022/05/22 03:53:43;;;;;;;;;;;;;;;26.69;33.36;99966.78;5077214;28;734;-40
2022/05/22 03:56:10;;;;;;;;;;;;;;;26.87;32.82;99974.34;5077273;28;794;-42
2022/05/22 03:58:35;;;;;;;;;;;;;;;24.94;36.85;99966.81;5077594;28;854;-41
2022/05/22 04:01:00;;;;;;;;;;;;;;;25.66;35.84;99958.06;5076893;28;853;-44
2022/05/22 04:03:25;;;;;;;;;;;;;;;26.41;34.17;99975.72;5077256;28;825;-51
2022/05/22 04:05:51;;;;;;;;;;;;;;;26.56;33.67;99981.00;5076809;28;1969;-47
2022/05/22 04:08:16;;;;;;;;;;;;;;;26.74;33.54;99988.56;5076998;28;842;-46
2022/05/22 04:10:41;;;;;;;;;;;;;;;26.78;32.80;99981.75;5076692;28;844;-45
2022/05/22 04:13:06;;;;;;;;;;;;;;;26.87;34.05;99982.44;5077155;28;833;-47
2022/05/22 04:15:32;;;;;;;;;;;;;;;27.04;33.42;99970.47;5076688;28;875;-44
2022/05/22 04:17:57;;;;;;;;;;;;;;;26.97;33.57;99989.31;5076820;28;781;-43
2022/05/22 04:20:22;;;;;;;;;;;;;;;26.97;33.74;99983.91;5077139;28;822;-42
2022/05/22 04:25:31;;;;;;;;;;;;;;;26.95;33.21;99994.06;5076247;28;1906;-42
2022/05/22 04:27:56;;;;;;;;;;;;;;;26.90;32.17;99991.97;5076927;28;809;-42
2022/05/22 04:30:22;;;;;;;;;;;;;;;27.03;32.64;99999.34;5076959;28;958;-43
2022/05/22 04:32:47;;;;;;;;;;;;;;;26.89;33.46;100001.94;5076672;28;773;-43
2022/05/22 04:35:13;;;;;;;;;;;;;;;26.97;32.98;100003.66;5076006;28;817;-48
2022/05/22 04:37:41;;;;;;;;;;;;;;;26.89;33.21;100001.13;5076221;28;824;-43
2022/05/22 04:40:07;;;;;;;;;;;;;;;27.05;32.58;99993.72;5076679;28;770;-44
2022/05/22 04:42:33;;;;;;;;;;;;;;;27.02;32.06;100000.38;5076598;28;837;-47
2022/05/22 04:44:58;;;;;;;;;;;;;;;27.09;32.62;100003.09;5076387;28;891;-45
2022/05/22 04:47:24;;;;;;;;;;;;;;;27.04;32.65;100011.81;5075743;28;1914;-45
2022/05/22 04:49:49;;;;;;;;;;;;;;;27.06;32.63;100011.63;5076008;28;997;-43
2022/05/22 04:52:14;;;;;;;;;;;;;;;27.05;32.32;100018.88;5076266;28;821;-44
2022/05/22 04:54:40;;;;;;;;;;;;;;;27.03;32.16;100018.22;5076461;28;950;-42
2022/05/22 04:57:05;;;;;;;;;;;;;;;27.14;32.99;100011.44;5075720;28;849;-45
2022/05/22 04:59:30;;;;;;;;;;;;;;;27.05;32.99;99997.28;5076060;28;805;-45
2022/05/22 05:01:56;;;;;;;;;;;;;;;27.10;32.85;100002.91;5075059;28;971;-48
2022/05/22 05:04:21;;;;;;;;;;;;;;;27.14;33.54;100012.25;5075994;28;1487;-42
2022/05/22 05:06:46;;;;;;;;;;;;;;;27.09;31.87;100003.09;5076051;28;1897;-41
2022/05/22 05:09:11;;;;;;;;;;;;;;;27.13;33.29;100012.47;5075136;28;853;-42
2022/05/22 05:11:37;;;;;;;;;;;;;;;26.87;30.11;99998.63;5075752;28;783;-41
2022/05/22 05:14:02;;;;;;;;;;;;;;;26.99;31.80;99998.88;5075842;28;823;-43
2022/05/22 05:16:28;;;;;;;;;;;;;;;27.18;32.53;100006.44;5075179;28;829;-43
2022/05/22 05:18:53;;;;;;;;;;;;;;;27.16;32.50;100003.94;5075967;28;916;-43
2022/05/22 05:21:19;;;;;;;;;;;;;;;27.05;33.66;100016.16;5076136;28;1257;-42
2022/05/22 05:23:44;;;;;;;;;;;;;;;26.97;33.72;100008.22;5075175;28;821;-43
2022/05/22 05:26:09;;;;;;;;;;;;;;;27.05;33.89;100010.78;5072187;28;1981;-42
2022/05/22 05:28:35;;;;;;;;;;;;;;;27.10;33.81;100013.69;5075147;28;888;-44
2022/05/22 05:31:00;;;;;;;;;;;;;;;27.09;33.63;100014.72;5074585;28;942;-42
2022/05/22 05:33:25;;;;;;;;;;;;;;;27.09;33.89;100022.00;5070676;28;802;-42
2022/05/22 05:35:51;;;;;;;;;;;;;;;27.13;33.50;100025.94;5070528;28;930;-44
2022/05/22 05:38:16;;;;;;;;;;;;;;;27.12;30.48;100024.31;5070748;28;853;-42
2022/05/22 05:40:42;;;;;;;;;;;;;;;27.12;32.08;100017.03;5072915;28;793;-43
2022/05/22 05:43:07;;;;;;;;;;;;;;;27.26;32.65;100012.50;5075282;28;823;-44
2022/05/22 05:45:32;;;;;;;;;;;;;;;27.26;32.82;100007.13;5073684;28;1902;-45
2022/05/22 05:47:58;;;;;;;;;;;;;;;27.19;33.81;100014.38;5075630;28;885;-45
2022/05/22 05:50:25;;;;;;;;;;;;;;;27.25;33.73;99999.22;5074760;28;807;-46
2022/05/22 05:52:51;;;;;;;;;;;;;;;25.65;37.12;99997.66;5056459;28;1168;-41
2022/05/22 05:55:17;;;;;;;;;;;;;;;26.39;35.49;99996.66;5075711;28;830;-46
2022/05/22 05:57:42;;;;;;;;;;;;;;;26.72;35.42;99979.03;5073790;28;880;-45
2022/05/22 06:00:08;;;;;;;;;;;;;;;26.97;34.61;99992.00;5074421;28;835;-45
2022/05/22 06:02:33;;;;;;;;;;;;;;;27.15;35.11;99994.19;5075109;28;973;-44
2022/05/22 06:04:59;;;;;;;;;;;;;;;27.40;34.55;99996.34;5074892;28;822;-41
2022/05/22 06:07:24;;;;;;;;;;;;;;;27.52;34.21;99991.19;5074338;28;1947;-42
2022/05/22 06:09:49;;;;;;;;;;;;;;;27.39;32.55;99997.41;5075532;28;882;-44
2022/05/22 06:12:15;;;;;;;;;;;;;;;27.20;32.42;99993.59;5077816;28;833;-43
2022/05/22 06:14:41;;;;;;;;;;;;;;;27.12;31.49;100000.84;5078923;28;1444;-42
2022/05/22 06:17:07;;;;;;;;;;;;;;;27.11;32.33;99992.94;5078296;28;912;-42
2022/05/22 06:22:16;;;;;;;;;;;;;;;27.25;33.24;100002.75;5079087;28;786;-42
2022/05/22 06:24:41;;;;;;;;;;;;;;;27.35;32.30;100010.47;5079118;28;833;-40
2022/05/22 06:27:07;;;;;;;;;;;;;;;27.31;34.04;100011.09;5078653;28;1968;-42
2022/05/22 06:29:32;;;;;;;;;;;;;;;27.37;33.89;100024.63;5078385;28;830;-41
2022/05/22 06:31:57;;;;;;;;;;;;;;;27.37;33.78;100048.91;5078397;28;847;-42
2022/05/22 06:34:23;;;;;;;;;;;;;;;27.41;32.47;100043.94;5078564;28;996;-44
2022/05/22 06:36:49;;;;;;;;;;;;;;;27.33;33.81;100052.19;5078782;28;806;-42
2022/05/22 06:41:58;;;;;;;;;;;;;;;27.42;33.85;100064.50;5078100;28;753;-42
2022/05/22 06:44:23;;;;;;;;;;;;;;;27.57;33.54;100072.47;5078846;28;840;-43
2022/05/22 06:46:49;;;;;;;;;;;;;;;27.48;34.03;100079.06;5078234;28;1963;-43
2022/05/22 06:49:14;;;;;;;;;;;;;;;27.49;34.02;100078.84;5078266;28;813;-43
2022/05/22 06:51:39;;;;;;;;;;;;;;;27.54;33.73;100080.13;5078601;28;801;-42
2022/05/22 06:54:04;;;;;;;;;;;;;;;27.56;33.70;100073.47;5078597;28;897;-42
2022/05/22 06:56:30;;;;;;;;;;;;;;;27.54;33.84;100072.88;5079055;28;877;-42
2022/05/22 06:58:55;;;;;;;;;;;;;;;27.65;33.60;100066.03;5077976;28;808;-43
2022/05/22 07:01:21;;;;;;;;;;;;;;;27.63;33.75;100068.09;5077643;28;857;-42
2022/05/22 07:03:46;;;;;;;;;;;;;;;27.68;33.30;100073.75;5078290;28;748;-41
2022/05/22 07:06:11;;;;;;;;;;;;;;;27.70;32.98;100070.84;5076821;28;1906;-44
2022/05/22 07:08:37;;;;;;;;;;;;;;;27.69;33.25;100078.16;5077128;28;785;-45
2022/05/22 07:13:45;;;;;;;;;;;;;;;27.71;32.64;100059.84;5071872;28;615;-42
2022/05/22 07:16:11;;;;;;;;;;;;;;;27.69;33.07;100070.03;5077982;28;811;-43
2022/05/22 07:18:36;;;;;;;;;;;;;;;27.75;33.59;100054.88;5078080;28;821;-43
2022/05/22 07:21:01;;;;;;;;;;;;;;;27.75;33.01;100058.41;5077408;28;864;-43
2022/05/22 07:23:27;;;;;;;;;;;;;;;27.78;33.00;100056.34;5077555;28;876;-43
2022/05/22 07:25:53;;;;;;;;;;;;;;;27.75;33.22;100050.31;5077867;28;1898;-43
2022/05/22 07:28:18;;;;;;;;;;;;;;;27.79;33.12;100053.44;5077661;28;860;-43
2022/05/22 07:30:44;;;;;;;;;;;;;;;27.91;33.05;100055.53;5077834;28;895;-44
2022/05/22 07:33:09;;;;;;;;;;;;;;;27.84;32.80;100053.63;5077755;28;794;-43
2022/05/22 07:35:34;;;;;;;;;;;;;;;27.90;33.13;100056.56;5077592;28;901;-44
2022/05/22 07:38:01;;;;;;;;;;;;;;;27.92;32.93;100059.88;5077679;28;849;-43
2022/05/22 07:40:27;;;;;;;;;;;;;;;27.92;32.64;100057.19;5077735;28;920;-43
2022/05/22 07:42:52;;;;;;;;;;;;;;;27.92;32.82;100063.44;5077551;28;829;-42
2022/05/22 07:45:18;;;;;;;;;;;;;;;27.96;33.10;100059.28;5076690;28;798;-45
2022/05/22 07:47:43;;;;;;;;;;;;;;;27.98;32.85;100061.75;5059112;28;1980;-43
2022/05/22 07:50:17;;;;;;;;;;;;;;;27.96;32.67;100055.75;5077162;28;924;-45
2022/05/22 07:52:45;;;;;;;;;;;;;;;28.05;33.06;100050.97;5077720;28;789;-42
2022/05/22 07:55:14;;;;;;;;;;;;;;;27.97;32.99;100057.41;5077299;28;838;-43
2022/05/22 07:57:42;;;;;;;;;;;;;;;27.99;32.99;100060.75;5076574;28;805;-42
2022/05/22 08:00:11;;;;;;;;;;;;;;;28.01;33.07;100061.34;5076604;28;889;-42
2022/05/22 08:02:37;;;;;;;;;;;;;;;28.04;32.94;100060.13;5077222;28;818;-41
2022/05/22 08:05:02;;;;;;;;;;;;;;;28.09;33.25;100057.63;5077235;28;861;-43
2022/05/22 08:07:28;;;;;;;;;;;;;;;28.14;33.42;100055.16;5076955;28;1902;-42
2022/05/22 08:09:53;;;;;;;;;;;;;;;28.17;33.25;100054.72;5077129;28;812;-44
2022/05/22 08:12:18;;;;;;;;;;;;;;;28.29;33.17;100052.25;5076644;28;908;-44
2022/05/22 08:14:46;;;;;;;;;;;;;;;28.27;32.91;100042.66;5076742;28;773;-45
2022/05/22 08:17:12;;;;;;;;;;;;;;;28.29;32.77;100049.53;5076365;28;809;-44
2022/05/22 08:19:37;;;;;;;;;;;;;;;28.27;32.83;100048.06;5077083;28;838;-45
2022/05/22 08:22:02;;;;;;;;;;;;;;;28.26;33.21;100041.81;5076840;28;868;-50
2022/05/22 08:24:28;;;;;;;;;;;;;;;28.29;32.41;100038.72;5076073;28;823;-53
2022/05/22 08:26:53;;;;;;;;;;;;;;;28.29;32.45;100040.59;5076432;28;1898;-42
2022/05/22 08:29:18;;;;;;;;;;;;;;;28.23;32.47;100040.38;5076494;28;806;-47
2022/05/22 08:31:44;;;;;;;;;;;;;;;28.28;32.16;100045.16;5076228;28;917;-43
2022/05/22 08:34:09;;;;;;;;;;;;;;;28.33;32.30;100048.09;5076353;28;746;-46
2022/05/22 08:36:35;;;;;;;;;;;;;;;28.35;32.38;100046.03;5075689;28;814;-44
2022/05/22 08:39:00;;;;;;;;;;;;;;;28.36;32.06;100042.28;5076331;28;777;-43
2022/05/22 08:41:25;;;;;;;;;;;;;;;28.42;31.88;100035.19;5076393;28;762;-45
2022/05/22 08:43:52;;;;;;;;;;;;;;;28.47;31.76;100035.41;5076682;28;865;-45
2022/05/22 08:46:28;;;;;;;;;;;;;;;28.52;31.73;100033.94;5075574;28;1957;-44
2022/05/22 08:48:56;;;;;;;;;;;;;;;28.44;31.91;100030.44;5076034;28;841;-44
2022/05/22 08:51:30;;;;;;;;;;;;;;;28.42;31.84;100024.38;5075834;28;837;-46
2022/05/22 08:53:58;;;;;;;;;;;;;;;28.41;32.42;100028.13;5057758;28;1325;-46
2022/05/22 08:59:09;;;;;;;;;;;;;;;28.42;31.41;100032.50;5069026;28;652;-44
2022/05/22 09:01:53;;;;;;;;;;;;;;;28.47;31.32;100030.00;5075434;28;1034;-43
2022/05/22 09:04:22;;;;;;;;;;;;;;;28.41;31.29;100030.00;5071668;28;929;-42
2022/05/22 09:06:53;;;;;;;;;;;;;;;28.44;31.83;100026.88;5075768;28;1902;-42
2022/05/22 09:09:18;;;;;;;;;;;;;;;28.47;32.09;100027.28;5057807;28;791;-43
2022/05/22 09:12:02;;;;;;;;;;;;;;;28.57;31.37;100023.31;5076094;28;714;-42
2022/05/22 09:14:31;;;;;;;;;;;;;;;28.53;31.61;100019.38;5075589;28;833;-44
2022/05/22 09:17:26;;;;;;;;;;;;;;;28.50;31.68;100022.47;5075987;28;871;-44
2022/05/22 09:19:56;;;;;;;;;;;;;;;28.48;31.80;100020.84;5048894;28;1443;-44
2022/05/22 09:22:30;;;;;;;;;;;;;;;28.42;31.40;100012.72;5057138;28;868;-44
2022/05/22 09:24:55;;;;;;;;;;;;;;;28.45;31.48;100010.44;5075972;28;1000;-44
2022/05/22 09:27:21;;;;;;;;;;;;;;;28.43;31.53;100017.06;5074934;28;1909;-43
2022/05/22 09:30:06;;;;;;;;;;;;;;;28.44;31.52;100014.19;5057729;28;903;-44
2022/05/22 09:32:41;;;;;;;;;;;;;;;28.45;31.63;100017.72;5054870;28;846;-44
2022/05/22 09:35:12;;;;;;;;;;;;;;;28.49;31.13;100018.97;5076044;28;750;-44
2022/05/22 09:37:44;;;;;;;;;;;;;;;28.41;31.24;100013.78;5075588;28;1521;-49
2022/05/22 09:40:15;;;;;;;;;;;;;;;28.56;31.66;100010.84;5075350;28;789;-42
2022/05/22 09:42:56;;;;;;;;;;;;;;;28.59;31.05;100013.94;5075270;28;825;-41
2022/05/22 09:45:27;;;;;;;;;;;;;;;28.54;30.61;100011.06;5071507;28;823;-41
2022/05/22 09:48:02;;;;;;;;;;;;;;;28.58;30.56;100003.31;5061789;28;1890;-41
2022/05/22 09:50:47;;;;;;;;;;;;;;;28.58;31.32;100006.88;5079644;28;918;-42
2022/05/22 09:53:19;;;;;;;;;;;;;;;28.65;30.97;100011.44;5078170;28;1118;-47
2022/05/22 09:55:45;;;;;;;;;;;;;;;28.59;30.95;100005.00;5079753;28;817;-44
2022/05/22 09:58:22;;;;;;;;;;;;;;;28.57;31.42;99997.09;5079454;28;1047;-43
2022/05/22 10:01:10;;;;;;;;;;;;;;;28.59;31.28;99995.00;5078836;28;870;-44
2022/05/22 10:03:35;;;;;;;;;;;;;;;28.65;31.37;99998.75;5062104;28;818;-43
2022/05/22 10:06:12;;;;;;;;;;;;;;;28.69;31.26;99991.03;5079007;28;1897;-42
2022/05/22 10:08:41;;;;;;;;;;;;;;;28.75;31.36;99997.47;5079148;28;873;-42
2022/05/22 10:11:19;;;;;;;;;;;;;;;28.69;31.32;99996.44;5079061;28;792;-42
2022/05/22 10:13:54;;;;;;;;;;;;;;;28.73;31.47;99998.50;5061921;28;809;-45
2022/05/22 10:16:31;;;;;;;;;;;;;;;28.78;31.07;100005.97;5078522;28;805;-42
2022/05/22 10:19:02;;;;;;;;;;;;;;;28.85;30.88;100003.25;5078616;28;853;-42
2022/05/22 10:21:43;;;;;;;;;;;;;;;28.76;31.35;99999.13;5078766;28;893;-44
2022/05/22 10:24:30;;;;;;;;;;;;;;;28.71;31.45;99991.66;5074015;28;781;-44
2022/05/22 10:27:00;;;;;;;;;;;;;;;28.75;31.42;100005.56;5078605;28;1906;-43
2022/05/22 10:29:49;;;;;;;;;;;;;;;28.73;31.47;99997.66;5078968;28;738;-43
2022/05/22 10:32:31;;;;;;;;;;;;;;;28.72;31.60;99987.91;5064728;28;1207;-44
2022/05/22 10:35:09;;;;;;;;;;;;;;;28.60;31.43;99990.41;5060971;28;837;-43
2022/05/22 10:37:37;;;;;;;;;;;;;;;28.74;31.50;99988.53;5078860;28;908;-45
2022/05/22 10:40:06;;;;;;;;;;;;;;;28.75;31.28;99987.47;5061587;28;750;-43
2022/05/22 10:42:45;;;;;;;;;;;;;;;28.83;31.46;99992.66;5078687;28;774;-44
2022/05/22 10:45:14;;;;;;;;;;;;;;;28.89;31.09;99987.44;5078577;28;925;-43
2022/05/22 10:47:39;;;;;;;;;;;;;;;28.81;30.74;99988.50;5060749;28;1902;-43
2022/05/22 10:50:15;;;;;;;;;;;;;;;28.70;28.80;99985.41;5078366;28;804;-42
2022/05/22 10:52:41;;;;;;;;;;;;;;;28.71;28.89;99986.25;5078317;28;790;-43
2022/05/22 10:55:15;;;;;;;;;;;;;;;28.78;30.19;99981.63;5078708;28;822;-44
2022/05/22 10:57:41;;;;;;;;;;;;;;;28.87;30.27;99975.97;5076928;28;793;-41
2022/05/22 11:00:12;;;;;;;;;;;;;;;28.86;30.39;99980.56;5078021;28;1040;-43
2022/05/22 11:02:38;;;;;;;;;;;;;;;28.84;30.22;99969.13;5078581;28;728;-42
2022/05/22 11:05:12;;;;;;;;;;;;;;;28.82;30.54;99974.75;5078090;28;1077;-43
2022/05/22 11:07:45;;;;;;;;;;;;;;;28.88;30.60;99961.41;5078500;28;1898;-44
2022/05/22 11:10:10;;;;;;;;;;;;;;;28.65;29.28;99973.53;5073761;28;908;-44
2022/05/22 11:12:35;;;;;;;;;;;;;;;28.75;29.93;99970.38;5077699;28;837;-42
2022/05/22 11:15:24;;;;;;;;;;;;;;;28.79;30.38;99955.41;5077769;28;924;-43
2022/05/22 11:17:49;;;;;;;;;;;;;;;28.84;29.94;99958.31;5065851;28;1592;-43
2022/05/22 11:20:15;;;;;;;;;;;;;;;28.70;29.87;99958.34;5059861;28;1261;-44
2022/05/22 11:22:59;;;;;;;;;;;;;;;28.70;29.11;99954.78;5077643;28;774;-45
2022/05/22 11:25:29;;;;;;;;;;;;;;;28.93;30.06;99953.47;5074841;28;1241;-48
2022/05/22 11:28:06;;;;;;;;;;;;;;;28.82;30.17;99952.25;5079468;28;1902;-44
2022/05/22 11:30:47;;;;;;;;;;;;;;;28.80;30.58;99957.06;5073018;28;737;-45
2022/05/22 11:33:21;;;;;;;;;;;;;;;28.88;30.29;99945.97;5067283;28;785;-44
2022/05/22 11:36:07;;;;;;;;;;;;;;;28.87;30.27;99940.78;5076477;28;852;-46
2022/05/22 11:38:51;;;;;;;;;;;;;;;28.88;30.08;99943.28;5058825;28;777;-48
2022/05/22 11:41:16;;;;;;;;;;;;;;;28.65;28.84;99941.91;5076450;28;912;-48
2022/05/22 11:44:05;;;;;;;;;;;;;;;28.66;28.88;99938.16;5077132;28;829;-45
2022/05/22 11:46:49;;;;;;;;;;;;;;;28.75;29.57;99941.47;5057975;28;1976;-48
2022/05/22 11:49:33;;;;;;;;;;;;;;;28.85;29.91;99938.28;5076544;28;774;-45
2022/05/22 11:51:58;;;;;;;;;;;;;;;28.81;30.05;99931.66;5076487;28;814;-44
2022/05/22 11:54:29;;;;;;;;;;;;;;;28.77;30.19;99930.41;5076877;28;762;-44
2022/05/22 11:57:13;;;;;;;;;;;;;;;28.80;30.06;99940.81;5076149;28;998;-47
2022/05/22 11:59:45;;;;;;;;;;;;;;;28.72;30.16;99937.31;5075965;28;813;-47
2022/05/22 12:02:29;;;;;;;;;;;;;;;28.77;30.18;99927.72;5058077;28;1561;-47
2022/05/22 12:04:56;;;;;;;;;;;;;;;28.88;30.45;99923.53;5076504;28;766;-43
2022/05/22 12:07:34;;;;;;;;;;;;;;;28.84;30.36;99923.91;5076425;28;2046;-44
2022/05/22 12:10:06;;;;;;;;;;;;;;;28.82;30.50;99920.63;5075066;28;932;-44
2022/05/22 12:12:35;;;;;;;;;;;;;;;28.90;30.36;99905.16;5058196;28;900;-47
2022/05/22 12:15:01;;;;;;;;;;;;;;;28.82;30.69;99908.94;5075938;28;930;-48
2022/05/22 12:17:44;;;;;;;;;;;;;;;28.87;30.86;99913.72;5075802;28;902;-42
2022/05/22 12:20:13;;;;;;;;;;;;;;;28.91;31.54;99921.19;5070726;28;768;-44
2022/05/22 12:25:33;;;;;;;;;;;;;;;28.83;30.76;99916.03;5059861;28;1196;-43
2022/05/22 12:27:58;;;;;;;;;;;;;;;28.96;30.46;99907.03;5058648;28;1968;-43
2022/05/22 12:30:30;;;;;;;;;;;;;;;28.94;30.83;99909.13;5057825;28;862;-44
2022/05/22 12:32:59;;;;;;;;;;;;;;;28.94;30.84;99911.81;5057510;28;830;-44
2022/05/22 12:35:24;;;;;;;;;;;;;;;28.90;30.48;99916.81;5057621;28;812;-42
2022/05/22 12:37:54;;;;;;;;;;;;;;;28.97;30.84;99914.13;5057626;28;904;-42
2022/05/22 12:40:20;;;;;;;;;;;;;;;28.93;31.03;99918.25;5057891;28;818;-44
2022/05/22 12:42:48;;;;;;;;;;;;;;;29.07;30.73;99917.19;5076204;28;784;-45
2022/05/22 12:45:13;;;;;;;;;;;;;;;28.97;30.98;99919.53;5056983;28;971;-46
2022/05/22 12:47:45;;;;;;;;;;;;;;;28.90;30.81;99924.09;5075409;28;1906;-43
2022/05/22 12:50:11;;;;;;;;;;;;;;;28.85;30.85;99927.47;5074984;28;865;-43
2022/05/22 12:52:36;;;;;;;;;;;;;;;28.90;31.04;99926.81;5075925;28;810;-45
2022/05/22 12:55:21;;;;;;;;;;;;;;;28.80;31.50;99927.28;5057093;28;1290;-44
2022/05/22 12:57:53;;;;;;;;;;;;;;;28.73;31.48;99921.88;5075787;28;807;-43
2022/05/22 13:00:30;;;;;;;;;;;;;;;28.85;31.03;99932.88;5068784;28;879;-43
2022/05/22 13:03:02;;;;;;;;;;;;;;;28.81;31.28;99923.53;5069686;28;781;-44
2022/05/22 13:05:29;;;;;;;;;;;;;;;28.76;30.94;99924.16;5057569;28;760;-45
2022/05/22 13:07:55;;;;;;;;;;;;;;;28.79;31.15;99915.66;5057644;28;1961;-45
2022/05/22 13:10:21;;;;;;;;;;;;;;;28.67;31.49;99915.47;5075261;28;896;-45
2022/05/22 13:12:55;;;;;;;;;;;;;;;28.77;30.83;99914.19;5075927;28;772;-44
2022/05/22 13:15:24;;;;;;;;;;;;;;;28.76;31.16;99904.41;5075149;28;816;-43
2022/05/22 13:17:51;;;;;;;;;;;;;;;28.76;31.14;99897.09;5074642;28;872;-44
2022/05/22 13:20:22;;;;;;;;;;;;;;;28.69;31.58;99915.25;5056938;28;1479;-44
2022/05/22 13:22:47;;;;;;;;;;;;;;;28.60;31.88;99904.69;5075545;28;853;-44
2022/05/22 13:25:27;;;;;;;;;;;;;;;28.60;31.57;99904.69;5056059;28;1042;-43